Time;durP1;ratioP1;P1;durP2;ratioP2;P2;SDS_P1;SDS_P2;PMS_P1;PMS_P2;Temp;Humidity;BMP_temperature;BMP_pressure;BME280_temperature;BME280_humidity;BME280_pressure;Samples;Min_cycle;Max_cycle;Signal;HPM_P1;HPM_P2
2021/12/21 00:05:00;;;;;;;31.15;8.55;;;;;;;-147.53;100.00;57128.34;15289351;19;20410;-58
2021/12/21 00:10:02;;;;;;;24.05;9.32;;;;;;;-147.53;100.00;57128.34;15285869;19;20015;-57
2021/12/21 00:15:18;;;;;;;23.60;8.95;;;;;;;-147.53;100.00;57128.34;15303626;19;20014;-58
2021/12/21 00:25:23;;;;;;;22.88;9.13;;;;;;;-147.53;100.00;57128.34;15301417;19;21556;-58
2021/12/21 00:30:24;;;;;;;24.05;8.82;;;;;;;-147.53;100.00;57128.34;15295994;19;20526;-58
2021/12/21 00:35:26;;;;;;;22.63;8.73;;;;;;;-147.53;100.00;57128.34;15299782;19;20535;-57
2021/12/21 00:40:28;;;;;;;24.08;8.88;;;;;;;-147.53;100.00;57128.34;15299669;19;20014;-58
2021/12/21 00:45:29;;;;;;;31.45;9.05;;;;;;;-147.53;100.00;57128.34;15298634;19;20082;-57
2021/12/21 00:50:31;;;;;;;28.33;8.55;;;;;;;-147.53;100.00;57128.34;15296018;19;20358;-58
2021/12/21 00:55:33;;;;;;;25.15;8.32;;;;;;;-147.53;100.00;57128.34;15298634;19;20082;-57
2021/12/21 01:00:43;;;;;;;29.00;9.15;;;;;;;-147.53;100.00;57128.34;15296221;19;20014;-56
2021/12/21 01:05:58;;;;;;;24.65;8.45;;;;;;;-147.53;100.00;57128.34;15300250;19;20038;-58
2021/12/21 01:26:36;;;;;;;23.98;8.80;;;;;;;-147.53;100.00;57128.34;15294737;19;20553;-58
2021/12/21 01:36:44;;;;;;;30.48;8.07;;;;;;;-147.53;100.00;57128.34;15296593;19;20062;-57
2021/12/21 01:52:11;;;;;;;20.75;8.73;;;;;;;-147.53;100.00;57128.34;15294873;19;20018;-58
2021/12/21 01:57:14;;;;;;;30.35;8.75;;;;;;;-147.53;100.00;57128.34;15295121;19;20391;-57
2021/12/21 02:02:22;;;;;;;25.73;8.65;;;;;;;-147.53;100.00;57128.34;15292736;19;20017;-55
2021/12/21 02:07:35;;;;;;;18.17;6.60;;;;;;;-147.53;100.00;57128.34;15295761;19;20025;-58
2021/12/21 02:12:37;;;;;;;18.77;7.80;;;;;;;-147.53;100.00;57128.34;15293767;19;20082;-57
2021/12/21 02:22:47;;;;;;;16.02;8.20;;;;;;;-147.53;100.00;57128.34;15290442;19;20428;-58
2021/12/21 02:28:09;;;;;;;22.17;7.40;;;;;;;-147.53;100.00;57128.34;15292465;19;20013;-57
2021/12/21 02:33:13;;;;;;;13.27;5.45;;;;;;;-147.53;100.00;57128.34;15289958;19;20011;-57
2021/12/21 02:38:15;;;;;;;15.30;7.13;;;;;;;-147.53;100.00;57128.34;15292098;19;20631;-57
2021/12/21 02:43:17;;;;;;;16.73;6.78;;;;;;;-147.53;100.00;57128.34;15290434;19;20010;-57
2021/12/21 02:48:19;;;;;;;16.45;6.68;;;;;;;-147.53;100.00;57128.34;15291391;19;20010;-56
2021/12/21 02:53:21;;;;;;;16.05;6.60;;;;;;;-147.53;100.00;57128.34;15291441;19;20015;-57
2021/12/21 02:58:22;;;;;;;17.33;7.05;;;;;;;-147.53;100.00;57128.34;15292621;19;20029;-57
2021/12/21 03:03:30;;;;;;;13.27;5.80;;;;;;;-147.53;100.00;57128.34;15291723;19;20014;-55
2021/12/21 03:08:45;;;;;;;21.45;6.40;;;;;;;-147.53;100.00;57128.34;15290008;19;20017;-57
2021/12/21 03:18:56;;;;;;;14.88;6.60;;;;;;;-147.53;100.00;57128.34;15289466;19;20015;-57
2021/12/21 03:23:58;;;;;;;14.88;6.25;;;;;;;-147.53;100.00;57128.34;15289246;19;20014;-58
2021/12/21 03:29:00;;;;;;;12.98;6.18;;;;;;;-147.53;100.00;57128.34;15286580;19;20122;-58
2021/12/21 03:34:04;;;;;;;18.90;6.78;;;;;;;-147.53;100.00;57128.34;15288297;19;20018;-58
2021/12/21 03:39:08;;;;;;;21.40;6.38;;;;;;;-147.53;100.00;57128.34;15288763;19;20082;-58
2021/12/21 03:44:10;;;;;;;16.30;6.45;;;;;;;-147.53;100.00;57128.34;15288825;19;20440;-57
2021/12/21 03:54:35;;;;;;;22.48;6.75;;;;;;;-147.53;100.00;57128.34;15304845;19;20031;-58
2021/12/21 03:59:37;;;;;;;17.58;6.93;;;;;;;-147.53;100.00;57128.34;15302371;19;20590;-58
2021/12/21 04:04:41;;;;;;;14.52;5.80;;;;;;;-147.53;100.00;57128.34;15304204;19;20378;-57
2021/12/21 04:09:42;;;;;;;20.13;7.15;;;;;;;-147.53;100.00;57128.34;15297279;19;20014;-58
2021/12/21 04:14:44;;;;;;;14.45;6.50;;;;;;;-147.53;100.00;57128.34;15301075;19;20019;-58
2021/12/21 04:19:46;;;;;;;18.45;6.55;;;;;;;-147.53;100.00;57128.34;15300418;19;20089;-58
2021/12/21 04:24:48;;;;;;;18.23;7.13;;;;;;;-147.53;100.00;57128.34;15301727;19;20015;-58
2021/12/21 04:29:49;;;;;;;19.58;7.05;;;;;;;-147.53;100.00;57128.34;15297680;19;20078;-59
2021/12/21 04:34:51;;;;;;;17.42;7.13;;;;;;;-147.53;100.00;57128.34;15301553;19;20082;-58
2021/12/21 04:40:06;;;;;;;22.05;6.60;;;;;;;-147.53;100.00;57128.34;15300868;19;20035;-57
2021/12/21 04:45:13;;;;;;;20.45;8.07;;;;;;;-147.53;100.00;57128.34;15193361;19;2004526;-58
2021/12/21 04:50:14;;;;;;;16.38;6.75;;;;;;;-147.53;100.00;57128.34;15297385;19;20018;-57
2021/12/21 04:55:16;;;;;;;16.65;7.60;;;;;;;-147.53;100.00;57128.34;15297102;19;20018;-57
2021/12/21 05:00:20;;;;;;;18.77;6.85;;;;;;;-147.53;100.00;57128.34;15296905;19;20093;-55
2021/12/21 05:05:23;;;;;;;16.40;7.43;;;;;;;-147.53;100.00;57128.34;15298434;19;20018;-57
2021/12/21 05:10:24;;;;;;;23.70;6.85;;;;;;;-147.53;100.00;57128.34;15295454;19;20011;-58
2021/12/21 05:15:26;;;;;;;15.60;6.82;;;;;;;-147.53;100.00;57128.34;15297584;19;20020;-58
2021/12/21 05:20:28;;;;;;;14.38;6.65;;;;;;;-147.53;100.00;57128.34;15296664;19;20011;-58
2021/12/21 05:25:30;;;;;;;15.82;6.10;;;;;;;-147.53;100.00;57128.34;15296614;19;20014;-57
2021/12/21 05:30:38;;;;;;;18.38;7.38;;;;;;;-147.53;100.00;57128.34;15293570;19;20485;-56
2021/12/21 05:35:40;;;;;;;16.33;5.90;;;;;;;-147.53;100.00;57128.34;15297127;19;20019;-57
2021/12/21 05:40:44;;;;;;;17.27;6.28;;;;;;;-147.53;100.00;57128.34;15297262;19;20102;-57
2021/12/21 05:45:46;;;;;;;16.80;6.97;;;;;;;-147.53;100.00;57128.34;15298348;19;20684;-57
2021/12/21 05:50:48;;;;;;;13.63;6.78;;;;;;;-147.53;100.00;57128.34;15293907;19;20015;-58
2021/12/21 05:55:49;;;;;;;13.13;5.82;;;;;;;-147.53;100.00;57128.34;15293522;19;20010;-56
2021/12/21 06:00:59;;;;;;;15.48;6.10;;;;;;;-147.53;100.00;57128.34;15291003;19;20018;-54
2021/12/21 06:06:12;;;;;;;14.95;6.40;;;;;;;-147.53;100.00;57128.34;15286559;19;20082;-57
2021/12/21 06:11:14;;;;;;;16.38;5.65;;;;;;;-147.53;100.00;57128.34;15290217;19;20018;-57
2021/12/21 06:22:45;;;;;;;16.70;6.63;;;;;;;-147.53;100.00;57128.34;15294731;19;20094;-58
2021/12/21 06:27:05;;;;;;;12.55;6.18;;;;;;;-147.53;100.00;57128.34;15291779;19;20482;-57
2021/12/21 06:32:08;;;;;;;14.05;6.40;;;;;;;-147.53;100.00;57128.34;15290279;19;20377;-57
2021/12/21 06:37:10;;;;;;;16.88;7.20;;;;;;;-147.53;100.00;57128.34;15292595;19;20014;-57
2021/12/21 06:42:13;;;;;;;10.80;5.70;;;;;;;-147.53;100.00;57128.34;15292552;19;20609;-57
2021/12/21 06:52:36;;;;;;;12.65;7.15;;;;;;;-147.53;100.00;57128.34;15287236;19;20010;-58
2021/12/21 06:57:42;;;;;;;11.73;5.32;;;;;;;-147.53;100.00;57128.34;15291779;19;20015;-57
2021/12/21 07:02:55;;;;;;;11.15;4.60;;;;;;;-147.53;100.00;57128.34;15282745;19;20070;-55
2021/12/21 07:08:11;;;;;;;14.55;7.25;;;;;;;-147.53;100.00;57128.34;15260270;19;20014;-57
2021/12/21 07:18:38;;;;;;;19.42;5.85;;;;;;;-147.53;100.00;57128.34;15286837;19;20090;-57
2021/12/21 07:23:39;;;;;;;12.05;5.63;;;;;;;-147.53;100.00;57128.34;15286238;19;20014;-55
2021/12/21 07:28:41;;;;;;;11.32;6.15;;;;;;;-147.53;100.00;57128.34;15288418;19;20085;-57
2021/12/21 07:33:43;;;;;;;14.25;6.70;;;;;;;-147.53;100.00;57128.34;15289569;19;20070;-57
2021/12/21 07:38:45;;;;;;;13.50;6.57;;;;;;;-147.53;100.00;57128.34;15288187;19;20089;-57
2021/12/21 07:43:46;;;;;;;12.80;6.15;;;;;;;-147.53;100.00;57128.34;15287600;19;20074;-57
2021/12/21 07:48:48;;;;;;;14.20;7.18;;;;;;;-147.53;100.00;57128.34;15286611;19;20010;-57
2021/12/21 07:53:52;;;;;;;11.20;5.70;;;;;;;-147.53;100.00;57128.34;15275232;19;20035;-55
2021/12/21 07:58:57;;;;;;;11.88;5.88;;;;;;;-147.53;100.00;57128.34;15275414;19;20026;-57
2021/12/21 08:04:07;;;;;;;13.98;6.15;;;;;;;-147.53;100.00;57128.34;15286548;19;20742;-54
2021/12/21 08:09:20;;;;;;;16.73;6.30;;;;;;;-147.53;100.00;57128.34;15262097;19;20495;-57
2021/12/21 08:14:22;;;;;;;14.07;7.18;;;;;;;-147.53;100.00;57128.34;15286569;19;20014;-57
2021/12/21 08:19:23;;;;;;;14.45;6.03;;;;;;;-147.53;100.00;57128.34;15287505;19;20022;-57
2021/12/21 08:24:25;;;;;;;13.82;6.22;;;;;;;-147.53;100.00;57128.34;15286492;19;20014;-56
2021/12/21 08:29:27;;;;;;;14.10;5.90;;;;;;;-147.53;100.00;57128.34;15286417;19;20015;-57
2021/12/21 08:34:29;;;;;;;14.77;5.40;;;;;;;-147.53;100.00;57128.34;15296391;19;20017;-57
2021/12/21 08:39:38;;;;;;;11.50;5.43;;;;;;;-147.53;100.00;57128.34;15298766;19;20015;-58
2021/12/21 08:44:41;;;;;;;18.37;7.60;;;;;;;-147.53;100.00;57128.34;15300463;19;20019;-56
2021/12/21 08:49:43;;;;;;;14.15;6.07;;;;;;;-147.53;100.00;57128.34;15297327;19;20018;-57
2021/12/21 08:54:45;;;;;;;13.07;6.35;;;;;;;-147.53;100.00;57128.34;15298583;19;20640;-55
2021/12/21 08:59:47;;;;;;;12.60;6.28;;;;;;;-147.53;100.00;57128.34;15298549;19;20538;-57
2021/12/21 09:04:55;;;;;;;17.77;6.68;;;;;;;-147.53;100.00;57128.34;15298397;19;20027;-54
2021/12/21 09:10:08;;;;;;;17.90;7.30;;;;;;;-147.53;100.00;57128.34;15279366;19;20082;-57
2021/12/21 09:15:11;;;;;;;11.90;5.20;;;;;;;-147.53;100.00;57128.34;15298906;19;20633;-57
2021/12/21 09:20:16;;;;;;;13.70;5.63;;;;;;;-147.53;100.00;57128.34;15295611;19;20086;-57
2021/12/21 09:25:20;;;;;;;12.98;5.88;;;;;;;-147.53;100.00;57128.34;15296846;19;20592;-58
2021/12/21 09:30:28;;;;;;;13.45;6.57;;;;;;;-147.53;100.00;57128.34;15294941;19;20026;-57
2021/12/21 09:35:29;;;;;;;15.93;5.93;;;;;;;-147.53;100.00;57128.34;15295237;19;20061;-57
2021/12/21 09:40:32;;;;;;;12.82;6.50;;;;;;;-147.53;100.00;57128.34;15295291;19;20512;-57
2021/12/21 09:45:35;;;;;;;15.82;6.03;;;;;;;-147.53;100.00;57128.34;15291114;19;20046;-56
2021/12/21 09:50:37;;;;;;;15.32;7.28;;;;;;;-147.53;100.00;57128.34;15293659;19;20354;-56
2021/12/21 09:55:39;;;;;;;17.58;7.90;;;;;;;-147.53;100.00;57128.34;15293920;19;20510;-57
2021/12/21 10:00:52;;;;;;;15.05;6.93;;;;;;;-147.53;100.00;57128.34;15294936;19;20043;-55
2021/12/21 10:06:16;;;;;;;20.27;7.72;;;;;;;-147.53;100.00;57128.34;15270147;19;20098;-56
2021/12/21 10:11:23;;;;;;;17.60;7.35;;;;;;;-147.53;100.00;57128.34;15292922;19;20007;-58
2021/12/21 10:16:25;;;;;;;20.95;8.80;;;;;;;-147.53;100.00;57128.34;15286512;19;20658;-58
2021/12/21 10:21:26;;;;;;;18.23;8.30;;;;;;;-147.53;100.00;57128.34;15290029;19;20015;-59
2021/12/21 10:26:30;;;;;;;20.80;8.77;;;;;;;-147.53;100.00;57128.34;15290362;19;20130;-59
2021/12/21 10:31:36;;;;;;;18.38;7.15;;;;;;;-147.53;100.00;57128.34;15289918;19;20114;-59
2021/12/21 10:36:52;;;;;;;20.10;7.78;;;;;;;-147.53;100.00;57128.34;15291088;19;20238;-58
2021/12/21 10:41:59;;;;;;;24.33;7.68;;;;;;;-147.53;100.00;57128.34;15290621;19;20032;-58
2021/12/21 10:47:01;;;;;;;19.67;7.22;;;;;;;-147.53;100.00;57128.34;15290803;19;20014;-59
2021/12/21 10:52:12;;;;;;;21.42;7.78;;;;;;;-147.53;100.00;57128.34;15288732;19;20031;-57
2021/12/21 10:57:24;;;;;;;20.80;8.88;;;;;;;-147.53;100.00;57128.34;15283943;19;20022;-58
2021/12/21 11:02:35;;;;;;;17.98;8.57;;;;;;;-147.53;100.00;57128.34;15288319;19;20385;-58
2021/12/21 11:08:28;;;;;;;19.63;7.97;;;;;;;-147.53;100.00;57128.34;15270730;19;20051;-57
2021/12/21 11:13:23;;;;;;;20.15;8.23;;;;;;;-147.53;100.00;57128.34;15284796;19;20114;-59
2021/12/21 11:18:25;;;;;;;23.00;9.02;;;;;;;-147.53;100.00;57128.34;15290025;19;20014;-59
2021/12/21 11:23:29;;;;;;;18.27;7.75;;;;;;;-147.53;100.00;57128.34;15287452;19;20015;-59
2021/12/21 11:28:36;;;;;;;17.75;7.95;;;;;;;-147.53;100.00;57128.34;15287504;19;20027;-59
2021/12/21 11:33:42;;;;;;;17.77;8.57;;;;;;;-147.53;100.00;57128.34;15289126;19;20042;-59
2021/12/21 11:38:44;;;;;;;24.27;9.13;;;;;;;-147.53;100.00;57128.34;15290318;19;20007;-59
2021/12/21 11:43:57;;;;;;;26.02;8.57;;;;;;;-147.53;100.00;57128.34;15287691;19;20527;-59
2021/12/21 11:49:16;;;;;;;19.38;8.00;;;;;;;-147.53;100.00;57128.34;15288787;19;20022;-59
2021/12/21 11:54:22;;;;;;;23.70;7.97;;;;;;;-147.53;100.00;57128.34;15289340;19;20363;-59
2021/12/21 11:59:23;;;;;;;20.33;9.05;;;;;;;-147.53;100.00;57128.34;15287555;19;20018;-60
2021/12/21 12:04:37;;;;;;;17.05;8.02;;;;;;;-147.53;100.00;57128.34;15286962;19;20538;-58
2021/12/21 12:10:10;;;;;;;20.48;8.57;;;;;;;-147.53;100.00;57128.34;15275319;19;20022;-58
2021/12/21 12:15:15;;;;;;;15.77;8.00;;;;;;;-147.53;100.00;57128.34;15191562;19;2004247;-59
2021/12/21 12:20:25;;;;;;;19.08;8.13;;;;;;;-147.53;100.00;57128.34;15303048;19;20380;-59
2021/12/21 12:25:27;;;;;;;19.98;9.82;;;;;;;-147.53;100.00;57128.34;15303372;19;20015;-59
2021/12/21 12:30:29;;;;;;;19.42;8.57;;;;;;;-147.53;100.00;57128.34;15297593;19;20014;-59
2021/12/21 12:35:33;;;;;;;20.65;8.43;;;;;;;-147.53;100.00;57128.34;15300671;19;20023;-59
2021/12/21 12:40:40;;;;;;;19.70;8.90;;;;;;;-147.53;100.00;57128.34;15298804;19;20018;-59
2021/12/21 12:45:49;;;;;;;23.88;10.02;;;;;;;-147.53;100.00;57128.34;15298643;19;20090;-59
2021/12/21 12:50:54;;;;;;;19.33;8.65;;;;;;;-147.53;100.00;57128.34;15297813;19;20026;-59
2021/12/21 12:55:58;;;;;;;19.98;8.13;;;;;;;-147.53;100.00;57128.34;15299377;19;20101;-60
2021/12/21 13:01:26;;;;;;;17.25;8.48;;;;;;;-147.53;100.00;57128.34;15295504;19;20055;-59
2021/12/21 13:06:54;;;;;;;19.67;9.05;;;;;;;-147.53;100.00;57128.34;15274278;19;20022;-60
2021/12/21 13:12:11;;;;;;;25.73;10.70;;;;;;;-147.53;100.00;57128.34;15290777;19;20014;-59
2021/12/21 13:17:16;;;;;;;19.35;8.82;;;;;;;-147.53;100.00;57128.34;15298104;19;20112;-59
2021/12/21 13:22:25;;;;;;;24.45;11.20;;;;;;;-147.53;100.00;57128.34;15296359;19;20011;-60
2021/12/21 13:27:27;;;;;;;23.80;9.53;;;;;;;-147.53;100.00;57128.34;15299331;19;20014;-59
2021/12/21 13:32:32;;;;;;;26.95;10.00;;;;;;;-147.53;100.00;57128.34;15295173;19;20543;-59
2021/12/21 13:37:34;;;;;;;24.33;10.07;;;;;;;-147.53;100.00;57128.34;15298193;19;20022;-59
2021/12/21 13:42:36;;;;;;;28.55;9.80;;;;;;;-147.53;100.00;57128.34;15291429;19;20535;-58
2021/12/21 13:47:44;;;;;;;17.13;8.27;;;;;;;-147.53;100.00;57128.34;15295871;19;20018;-58
2021/12/21 13:52:54;;;;;;;25.10;10.15;;;;;;;-147.53;100.00;57128.34;15289799;19;20018;-58
2021/12/21 13:57:59;;;;;;;17.50;8.50;;;;;;;-147.53;100.00;57128.34;15290792;19;20011;-57
2021/12/21 14:08:35;;;;;;;35.70;18.08;;;;;;;-147.53;100.00;57128.34;15268246;19;20018;-58
2021/12/21 14:13:42;;;;;;;17.75;8.70;;;;;;;-147.53;100.00;57128.34;15291188;19;20082;-59
2021/12/21 14:18:51;;;;;;;20.40;10.55;;;;;;;-147.53;100.00;57128.34;15293005;19;20034;-59
2021/12/21 14:24:01;;;;;;;28.23;12.75;;;;;;;-147.53;100.00;57128.34;15295556;19;20042;-60
2021/12/21 14:29:09;;;;;;;38.00;18.70;;;;;;;-147.53;100.00;57128.34;15292419;19;20015;-59
2021/12/21 14:34:17;;;;;;;26.30;12.32;;;;;;;-147.53;100.00;57128.34;15293775;19;20018;-59
2021/12/21 14:39:23;;;;;;;26.00;11.20;;;;;;;-147.53;100.00;57128.34;15293765;19;20415;-59
2021/12/21 14:44:27;;;;;;;28.38;12.40;;;;;;;-147.53;100.00;57128.34;15292292;19;20010;-60
2021/12/21 14:49:40;;;;;;;23.42;10.48;;;;;;;-147.53;100.00;57128.34;15282505;19;20017;-60
2021/12/21 14:54:51;;;;;;;20.05;10.25;;;;;;;-147.53;100.00;57128.34;15292584;19;20411;-60
2021/12/21 14:59:53;;;;;;;29.00;11.50;;;;;;;-147.53;100.00;57128.34;15284457;19;20010;-59
2021/12/21 15:05:06;;;;;;;21.88;11.05;;;;;;;-147.53;100.00;57128.34;15291316;19;20361;-60
2021/12/21 15:10:19;;;;;;;26.50;10.70;;;;;;;-147.53;100.00;57128.34;15185055;19;2004283;-60
2021/12/21 15:15:23;;;;;;;28.50;12.30;;;;;;;-147.53;100.00;57128.34;15290016;19;20494;-60
2021/12/21 15:20:26;;;;;;;31.85;12.77;;;;;;;-147.53;100.00;57128.34;15289921;19;20032;-60
2021/12/21 15:25:29;;;;;;;29.27;12.32;;;;;;;-147.53;100.00;57128.34;15292046;19;20385;-59
2021/12/21 15:30:31;;;;;;;53.50;19.42;;;;;;;-147.53;100.00;57128.34;15288642;19;20011;-59
2021/12/21 15:35:33;;;;;;;35.63;14.65;;;;;;;-147.53;100.00;57128.34;15287268;19;20077;-59
2021/12/21 15:40:35;;;;;;;34.22;13.52;;;;;;;-147.53;100.00;57128.34;15285230;19;20024;-60
2021/12/21 15:45:37;;;;;;;28.45;12.38;;;;;;;-147.53;100.00;57128.34;15286668;19;20010;-58
2021/12/21 15:50:38;;;;;;;27.33;11.90;;;;;;;-147.53;100.00;57128.34;15281596;19;20538;-59
2021/12/21 15:55:40;;;;;;;25.20;10.43;;;;;;;-147.53;100.00;57128.34;15285373;19;20035;-58
2021/12/21 16:00:57;;;;;;;26.48;12.07;;;;;;;-147.53;100.00;57128.34;15283772;19;20019;-57
2021/12/21 16:06:31;;;;;;;34.03;16.55;;;;;;;-147.53;100.00;57128.34;15260433;19;20022;-58
2021/12/21 16:11:53;;;;;;;31.55;14.02;;;;;;;-147.53;100.00;57128.34;15258572;19;20087;-56
2021/12/21 16:17:24;;;;;;;34.50;14.75;;;;;;;-147.53;100.00;57128.34;15255327;19;20003;-59
2021/12/21 16:22:37;;;;;;;39.78;15.80;;;;;;;-147.53;100.00;57128.34;15257664;19;20018;-59
2021/12/21 16:28:19;;;;;;;37.38;14.20;;;;;;;-147.53;100.00;57128.34;15247953;19;20014;-59
2021/12/21 16:33:47;;;;;;;26.67;10.90;;;;;;;-147.53;100.00;57128.34;15254217;19;20018;-58
2021/12/21 16:39:21;;;;;;;26.23;11.25;;;;;;;-147.53;100.00;57128.34;15266834;19;20019;-58
2021/12/21 16:44:44;;;;;;;;;;;;;;;-147.53;100.00;57128.34;15258225;19;20446;-58
2021/12/21 16:50:09;;;;;;;23.60;8.95;;;;;;;-147.53;100.00;57128.34;15228260;19;19925;-59
2021/12/21 16:55:25;;;;;;;27.67;11.10;;;;;;;-147.53;100.00;57128.34;15268822;19;20023;-58
2021/12/21 17:00:47;;;;;;;34.50;15.82;;;;;;;-147.53;100.00;57128.34;15271861;19;20294;-59
2021/12/21 17:06:19;;;;;;;26.33;12.02;;;;;;;-147.53;100.00;57128.34;15269747;19;20305;-58
2021/12/21 17:11:48;;;;;;;26.77;11.93;;;;;;;-147.53;100.00;57128.34;15261416;19;20022;-58
2021/12/21 17:17:24;;;;;;;23.08;10.95;;;;;;;-147.53;100.00;57128.34;15263279;19;20832;-57
2021/12/21 17:22:55;;;;;;;20.55;10.23;;;;;;;-147.53;100.00;57128.34;15268903;19;20014;-57
2021/12/21 17:28:21;;;;;;;18.90;9.70;;;;;;;-147.53;100.00;57128.34;15270197;19;20029;-56
2021/12/21 17:33:44;;;;;;;21.70;9.98;;;;;;;-147.53;100.00;57128.34;15280360;19;20006;-58
2021/12/21 17:39:12;;;;;;;29.17;10.43;;;;;;;-147.53;100.00;57128.34;15270458;19;20014;-56
2021/12/21 17:44:50;;;;;;;23.73;9.65;;;;;;;-147.53;100.00;57128.34;15278894;19;20025;-56
2021/12/21 17:50:18;;;;;;;20.98;8.60;;;;;;;-147.53;100.00;57128.34;15246348;19;20010;-57
2021/12/21 17:55:48;;;;;;;20.02;9.13;;;;;;;-147.53;100.00;57128.34;15260968;19;20068;-54
2021/12/21 18:01:14;;;;;;;17.20;8.68;;;;;;;-147.53;100.00;57128.34;15267371;19;20074;-55
2021/12/21 18:06:25;;;;;;;23.80;9.95;;;;;;;-147.53;100.00;57128.34;15287906;19;20035;-57
2021/12/21 18:11:27;;;;;;;24.02;10.75;;;;;;;-147.53;100.00;57128.34;15289539;19;20094;-58
2021/12/21 18:16:29;;;;;;;23.00;10.52;;;;;;;-147.53;100.00;57128.34;15291293;19;20078;-57
2021/12/21 18:21:31;;;;;;;28.30;13.50;;;;;;;-147.53;100.00;57128.34;15287518;19;20477;-58
2021/12/21 18:26:32;;;;;;;25.48;11.60;;;;;;;-147.53;100.00;57128.34;15291315;19;20022;-58
2021/12/21 18:31:35;;;;;;;22.25;11.30;;;;;;;-147.53;100.00;57128.34;15289417;19;20039;-57
2021/12/21 18:36:37;;;;;;;29.45;12.30;;;;;;;-147.53;100.00;57128.34;15287856;19;20479;-57
2021/12/21 18:41:39;;;;;;;25.58;10.90;;;;;;;-147.53;100.00;57128.34;15282511;19;20415;-58
2021/12/21 18:46:42;;;;;;;22.95;10.60;;;;;;;-147.53;100.00;57128.34;15281693;19;20022;-58
2021/12/21 18:51:43;;;;;;;29.58;11.98;;;;;;;-147.53;100.00;57128.34;15281800;19;20492;-58
2021/12/21 18:56:45;;;;;;;28.88;10.80;;;;;;;-147.53;100.00;57128.34;15283085;19;20018;-55
2021/12/21 19:02:05;;;;;;;29.55;13.07;;;;;;;-147.53;100.00;57128.34;15275891;19;20047;-55
2021/12/21 19:07:18;;;;;;;38.85;14.65;;;;;;;-147.53;100.00;57128.34;15281765;19;20081;-57
2021/12/21 19:12:19;;;;;;;33.17;12.57;;;;;;;-147.53;100.00;57128.34;15283184;19;20424;-58
2021/12/21 19:17:21;;;;;;;28.55;13.52;;;;;;;-147.53;100.00;57128.34;15286582;19;20085;-57
2021/12/21 19:22:25;;;;;;;30.75;13.32;;;;;;;-147.53;100.00;57128.34;15282156;19;20022;-57
2021/12/21 19:27:27;;;;;;;18.55;8.88;;;;;;;-147.53;100.00;57128.34;15280793;19;20098;-58
2021/12/21 19:32:29;;;;;;;25.63;9.98;;;;;;;-147.53;100.00;57128.34;15279193;19;20047;-57
2021/12/21 19:37:31;;;;;;;35.58;12.35;;;;;;;-147.53;100.00;57128.34;15276997;19;20011;-57
2021/12/21 19:42:33;;;;;;;25.90;11.27;;;;;;;-147.53;100.00;57128.34;15277391;19;20098;-58
2021/12/21 19:47:35;;;;;;;26.65;10.48;;;;;;;-147.53;100.00;57128.34;15283423;19;20027;-57
2021/12/21 19:52:39;;;;;;;29.92;11.15;;;;;;;-147.53;100.00;57128.34;15285638;19;20011;-57
2021/12/21 19:57:40;;;;;;;22.48;9.38;;;;;;;-147.53;100.00;57128.34;15285562;19;20018;-58
2021/12/21 20:02:51;;;;;;;23.23;9.45;;;;;;;-147.53;100.00;57128.34;15283436;19;20093;-55
2021/12/21 20:08:06;;;;;;;20.73;9.23;;;;;;;-147.53;100.00;57128.34;15285746;19;20082;-58
2021/12/21 20:13:10;;;;;;;28.95;14.60;;;;;;;-147.53;100.00;57128.34;15284561;19;20017;-57
2021/12/21 20:18:15;;;;;;;23.63;11.13;;;;;;;-147.53;100.00;57128.34;15284890;19;20102;-58
2021/12/21 20:23:17;;;;;;;20.15;9.73;;;;;;;-147.53;100.00;57128.34;15281487;19;20090;-57
2021/12/21 20:28:19;;;;;;;20.83;8.93;;;;;;;-147.53;100.00;57128.34;15290241;19;20085;-58
2021/12/21 20:33:30;;;;;;;18.48;8.95;;;;;;;-147.53;100.00;57128.34;15296430;19;20123;-56
2021/12/21 20:38:44;;;;;;;17.40;9.15;;;;;;;-147.53;100.00;57128.34;15302926;19;20093;-57
2021/12/21 20:43:54;;;;;;;19.42;9.70;;;;;;;-147.53;100.00;57128.34;15302854;19;20432;-55
2021/12/21 20:49:09;;;;;;;22.55;10.05;;;;;;;-147.53;100.00;57128.34;15280227;19;20031;-56
2021/12/21 20:54:11;;;;;;;18.35;9.07;;;;;;;-147.53;100.00;57128.34;15294278;19;20010;-57
2021/12/21 20:59:13;;;;;;;15.52;7.82;;;;;;;-147.53;100.00;57128.34;15291423;19;20018;-58
2021/12/21 21:04:16;;;;;;;15.85;8.02;;;;;;;-147.53;100.00;57128.34;15297331;19;20027;-57
2021/12/21 21:09:18;;;;;;;15.48;7.65;;;;;;;-147.53;100.00;57128.34;15296787;19;20010;-58
2021/12/21 21:14:20;;;;;;;14.70;7.32;;;;;;;-147.53;100.00;57128.34;15297544;19;20450;-58
2021/12/21 21:19:21;;;;;;;15.43;8.73;;;;;;;-147.53;100.00;57128.34;15219180;19;20014;-55
2021/12/21 21:24:23;;;;;;;20.15;10.00;;;;;;;-147.53;100.00;57128.34;15294320;19;20354;-57
2021/12/21 21:29:25;;;;;;;23.75;11.80;;;;;;;-147.53;100.00;57128.34;15293255;19;20006;-57
2021/12/21 21:34:27;;;;;;;19.15;9.68;;;;;;;-147.53;100.00;57128.34;15295407;19;20039;-56
2021/12/21 21:39:29;;;;;;;18.85;9.02;;;;;;;-147.53;100.00;57128.34;15292652;19;20081;-56
2021/12/21 21:44:31;;;;;;;20.30;8.07;;;;;;;-147.53;100.00;57128.34;15295781;19;20007;-56
2021/12/21 21:49:32;;;;;;;22.95;8.48;;;;;;;-147.53;100.00;57128.34;15294255;19;20025;-57
2021/12/21 21:54:34;;;;;;;14.60;7.55;;;;;;;-147.53;100.00;57128.34;15295183;19;20023;-57
2021/12/21 21:59:36;;;;;;;17.50;8.15;;;;;;;-147.53;100.00;57128.34;15294462;19;20010;-56
2021/12/21 22:04:37;;;;;;;20.88;8.70;;;;;;;-147.53;100.00;57128.34;15292894;19;20725;-57
2021/12/21 22:09:40;;;;;;;24.40;9.65;;;;;;;-147.53;100.00;57128.34;15291170;19;20014;-56
2021/12/21 22:14:42;;;;;;;15.43;7.47;;;;;;;-147.53;100.00;57128.34;15293080;19;20082;-57
2021/12/21 22:19:44;;;;;;;24.48;12.52;;;;;;;-147.53;100.00;57128.34;15291130;19;20537;-56
2021/12/21 22:24:46;;;;;;;29.98;10.98;;;;;;;-147.53;100.00;57128.34;15294102;19;20010;-57
2021/12/21 22:29:47;;;;;;;28.17;12.88;;;;;;;-147.53;100.00;57128.34;15293277;19;20032;-57
2021/12/21 22:34:49;;;;;;;27.73;12.27;;;;;;;-147.53;100.00;57128.34;15291931;19;20833;-57
2021/12/21 22:39:51;;;;;;;25.45;10.52;;;;;;;-147.53;100.00;57128.34;15289695;19;20493;-56
2021/12/21 22:44:53;;;;;;;27.05;9.15;;;;;;;-147.53;100.00;57128.34;15292460;19;20578;-56
2021/12/21 22:49:55;;;;;;;30.20;11.50;;;;;;;-147.53;100.00;57128.34;15290799;19;20014;-56
2021/12/21 22:54:56;;;;;;;35.00;13.38;;;;;;;-147.53;100.00;57128.34;15291755;19;20011;-57
2021/12/21 22:59:58;;;;;;;40.08;13.48;;;;;;;-147.53;100.00;57128.34;15290926;19;20569;-56
2021/12/21 23:05:00;;;;;;;38.83;11.65;;;;;;;-147.53;100.00;57128.34;15290082;19;20089;-57
2021/12/21 23:10:02;;;;;;;28.45;13.27;;;;;;;-147.53;100.00;57128.34;15290271;19;20010;-57
2021/12/21 23:15:06;;;;;;;30.80;12.85;;;;;;;-147.53;100.00;57128.34;15290196;19;20018;-55
2021/12/21 23:20:08;;;;;;;27.27;10.20;;;;;;;-147.53;100.00;57128.34;15290074;19;20090;-57
2021/12/21 23:25:10;;;;;;;25.85;11.05;;;;;;;-147.53;100.00;57128.34;15289346;19;20105;-56
2021/12/21 23:30:12;;;;;;;32.42;12.45;;;;;;;-147.53;100.00;57128.34;15287353;19;20029;-56
2021/12/21 23:35:14;;;;;;;30.77;12.43;;;;;;;-147.53;100.00;57128.34;15288612;19;20010;-57
2021/12/21 23:40:19;;;;;;;30.08;12.82;;;;;;;-147.53;100.00;57128.34;15287481;19;20010;-54
2021/12/21 23:45:20;;;;;;;31.85;11.57;;;;;;;-147.53;100.00;57128.34;15288758;19;20086;-56
2021/12/21 23:50:22;;;;;;;35.10;11.30;;;;;;;-147.53;100.00;57128.34;15287644;19;20023;-55
2021/12/21 23:55:24;;;;;;;32.10;11.82;;;;;;;-147.53;100.00;57128.34;15289002;19;20019;-55
